Time;durP1;ratioP1;P1;durP2;ratioP2;P2;SDS_P1;SDS_P2;PMS_P1;PMS_P2;Temp;Humidity;BMP_temperature;BMP_pressure;BME280_temperature;BME280_humidity;BME280_pressure;Samples;Min_cycle;Max_cycle;Signal;HPM_P1;HPM_P2
2022/06/18 00:01:35;;;;;;;4.32;2.55;;;15.30;99.90;;;;;;5040890;28;20408;-85
2022/06/18 00:04:10;;;;;;;3.53;2.72;;;15.30;99.90;;;;;;5040843;28;20025;-85
2022/06/18 00:06:46;;;;;;;4.05;2.55;;;15.30;99.90;;;;;;5041101;28;20029;-85
2022/06/18 00:09:12;;;;;;;4.05;2.70;;;15.30;99.90;;;;;;5059083;28;20025;-85
2022/06/18 00:14:22;;;;;;;4.57;2.55;;;15.30;99.90;;;;;;5038630;28;20032;-85
2022/06/18 00:16:48;;;;;;;3.70;2.60;;;15.30;99.90;;;;;;5020381;28;20022;-85
2022/06/18 00:19:14;;;;;;;4.13;2.60;;;15.30;99.90;;;;;;5039073;28;20033;-86
2022/06/18 00:21:40;;;;;;;3.58;2.50;;;15.20;99.90;;;;;;5020919;28;20041;-86
2022/06/18 00:24:16;;;;;;;3.75;2.42;;;15.20;99.90;;;;;;5037791;28;20486;-85
2022/06/18 00:26:42;;;;;;;4.20;2.65;;;15.10;99.90;;;;;;5037647;28;20025;-85
2022/06/18 00:29:13;;;;;;;4.07;2.35;;;15.10;99.90;;;;;;5056642;28;20146;-85
2022/06/18 00:31:39;;;;;;;5.63;2.70;;;15.00;99.90;;;;;;5040587;28;20021;-85
2022/06/18 00:34:05;;;;;;;4.50;2.50;;;15.00;99.90;;;;;;5058957;28;20029;-85
2022/06/18 00:36:31;;;;;;;3.13;2.30;;;14.90;99.90;;;;;;5057771;28;20027;-86
2022/06/18 00:38:57;;;;;;;4.18;2.38;;;14.70;99.90;;;;;;5040692;28;20096;-85
2022/06/18 00:41:25;;;;;;;4.07;2.70;;;14.50;99.90;;;;;;5040529;28;20028;-86
2022/06/18 00:43:58;;;;;;;3.90;2.35;;;14.30;99.90;;;;;;5058586;28;20098;-86
2022/06/18 00:46:46;;;;;;;3.85;2.85;;;14.20;99.90;;;;;;5039993;28;20032;-86
2022/06/18 00:49:20;;;;;;;4.40;2.47;;;14.20;99.90;;;;;;5057944;28;20021;-86
2022/06/18 00:51:57;;;;;;;5.18;2.67;;;14.30;99.90;;;;;;5039987;28;20079;-85
2022/06/18 00:54:27;;;;;;;3.45;2.47;;;14.30;99.90;;;;;;5057327;28;20470;-85
2022/06/18 00:57:16;;;;;;;3.38;2.70;;;14.40;99.90;;;;;;5054584;28;20477;-85
2022/06/18 00:59:47;;;;;;;4.28;2.28;;;14.40;99.90;;;;;;5038327;28;20033;-86
2022/06/18 01:02:30;;;;;;;3.55;2.38;;;14.40;99.90;;;;;;5039655;28;20033;-85
2022/06/18 01:04:56;;;;;;;3.72;2.20;;;14.40;99.90;;;;;;5037993;28;20085;-86
2022/06/18 01:07:42;;;;;;;4.00;2.30;;;14.40;99.90;;;;;;5019250;28;20041;-85
2022/06/18 01:10:22;;;;;;;4.03;2.42;;;14.40;99.90;;;;;;5019242;28;20120;-85
2022/06/18 01:12:49;;;;;;;4.50;2.77;;;14.30;99.90;;;;;;5035869;28;20555;-85
2022/06/18 01:15:20;;;;;;;4.07;2.90;;;14.30;99.90;;;;;;5035635;28;20026;-85
2022/06/18 01:17:47;;;;;;;;;;;14.30;99.90;;;;;;5019109;28;20065;-85
2022/06/18 01:20:13;;;;;;;6.10;2.75;;;14.30;99.90;;;;;;5035855;28;19905;-85
2022/06/18 01:23:43;;;;;;;5.38;2.55;;;14.30;99.90;;;;;;5045016;28;20032;-85
2022/06/18 01:26:10;;;;;;;3.90;2.78;;;14.30;99.90;;;;;;4972676;28;20462;-85
2022/06/18 01:28:36;;;;;;;4.03;2.38;;;14.30;99.90;;;;;;4974532;28;20027;-85
2022/06/18 01:31:02;;;;;;;5.47;2.33;;;14.30;99.90;;;;;;5027551;28;20044;-85
2022/06/18 01:33:29;;;;;;;4.13;2.30;;;14.30;99.90;;;;;;5055426;28;20435;-85
2022/06/18 01:35:55;;;;;;;3.33;2.28;;;14.30;99.90;;;;;;5038519;28;20115;-85
2022/06/18 01:38:24;;;;;;;3.80;2.58;;;14.20;99.90;;;;;;5033229;28;20108;-85
2022/06/18 01:43:57;;;;;;;2.92;2.40;;;14.00;99.90;;;;;;5035679;28;20382;-85
2022/06/18 01:46:25;;;;;;;4.30;2.22;;;13.90;99.90;;;;;;5035704;28;20022;-85
2022/06/18 01:48:54;;;;;;;3.05;2.50;;;13.90;99.90;;;;;;5022404;28;20016;-86
2022/06/18 01:51:29;;;;;;;5.70;3.50;;;13.90;99.90;;;;;;5037723;28;20025;-85
2022/06/18 01:54:11;;;;;;;4.88;3.00;;;13.90;99.90;;;;;;5037934;28;20021;-85
2022/06/18 01:56:44;;;;;;;5.32;3.72;;;13.90;99.90;;;;;;5055836;28;20393;-85
2022/06/18 01:59:26;;;;;;;5.82;3.70;;;13.90;99.90;;;;;;5056057;28;20025;-85
2022/06/18 02:01:52;;;;;;;10.20;6.18;;;13.80;99.90;;;;;;5037570;28;20056;-86
2022/06/18 02:04:20;;;;;;;12.43;9.23;;;13.70;99.90;;;;;;5054824;28;20025;-85
2022/06/18 02:06:48;;;;;;;7.97;6.13;;;13.50;99.90;;;;;;5036898;28;20428;-85
2022/06/18 02:09:36;;;;;;;7.25;4.50;;;13.30;99.90;;;;;;5044614;28;20013;-85
2022/06/18 02:12:05;;;;;;;5.97;3.50;;;13.10;99.90;;;;;;5037324;28;20112;-85
2022/06/18 02:14:33;;;;;;;6.10;3.78;;;13.00;99.90;;;;;;5036589;28;20396;-85
2022/06/18 02:17:03;;;;;;;3.90;2.33;;;13.00;99.90;;;;;;5055385;28;20025;-85
2022/06/18 02:19:29;;;;;;;3.65;2.47;;;13.00;99.90;;;;;;5036521;28;20033;-85
2022/06/18 02:21:57;;;;;;;3.85;2.60;;;13.00;99.90;;;;;;5055454;28;20021;-85
2022/06/18 02:24:23;;;;;;;4.05;2.33;;;13.10;99.90;;;;;;5054114;28;20047;-85
2022/06/18 02:26:49;;;;;;;3.63;2.55;;;13.10;99.90;;;;;;5054856;28;20021;-85
2022/06/18 02:29:26;;;;;;;4.32;2.50;;;13.10;99.90;;;;;;5037144;28;20134;-85
2022/06/18 02:31:52;;;;;;;3.53;2.65;;;13.20;99.90;;;;;;5037384;28;20025;-85
2022/06/18 02:34:26;;;;;;;5.38;2.85;;;13.20;99.90;;;;;;5036680;28;20036;-85
2022/06/18 02:36:52;;;;;;;3.47;2.10;;;13.20;99.90;;;;;;5055340;28;20029;-85
2022/06/18 02:39:39;;;;;;;3.33;2.42;;;13.10;99.90;;;;;;5039211;28;20021;-85
2022/06/18 02:42:08;;;;;;;3.85;2.65;;;13.10;99.90;;;;;;5041077;28;20370;-85
2022/06/18 02:44:34;;;;;;;4.57;2.80;;;13.10;99.90;;;;;;5040295;28;20043;-85
2022/06/18 02:47:05;;;;;;;5.55;2.88;;;13.00;99.90;;;;;;5041155;28;20032;-85
2022/06/18 02:49:37;;;;;;;6.00;2.60;;;13.00;99.90;;;;;;5059029;28;20377;-85
2022/06/18 02:52:06;;;;;;;3.63;2.40;;;13.10;99.90;;;;;;5041272;28;20021;-85
2022/06/18 02:54:33;;;;;;;5.93;2.60;;;13.10;99.90;;;;;;5058243;28;20099;-85
2022/06/18 02:57:02;;;;;;;3.25;2.55;;;13.10;99.90;;;;;;5059121;28;20419;-86
2022/06/18 02:59:28;;;;;;;2.90;2.35;;;13.20;99.90;;;;;;5036528;28;20500;-85
2022/06/18 03:01:54;;;;;;;4.70;2.50;;;13.20;99.90;;;;;;5021133;28;20029;-85
2022/06/18 03:04:20;;;;;;;3.70;2.65;;;13.20;99.90;;;;;;5022281;28;20485;-85
2022/06/18 03:06:45;;;;;;;5.10;3.08;;;13.20;99.90;;;;;;5041370;28;20108;-85
2022/06/18 03:09:11;;;;;;;3.42;2.75;;;13.20;99.90;;;;;;5059387;28;20461;-85
2022/06/18 03:14:21;;;;;;;5.43;2.88;;;13.10;99.90;;;;;;5039349;28;20553;-85
2022/06/18 03:16:48;;;;;;;3.92;3.03;;;13.10;99.90;;;;;;5020327;28;20056;-85
2022/06/18 03:19:39;;;;;;;4.85;2.75;;;13.10;99.90;;;;;;5037491;28;20128;-85
2022/06/18 03:22:12;;;;;;;3.28;2.42;;;13.10;99.90;;;;;;5034985;28;20029;-85
2022/06/18 03:24:40;;;;;;;4.03;2.47;;;13.10;99.90;;;;;;5035967;28;20021;-85
2022/06/18 03:27:07;;;;;;;4.32;3.10;;;13.10;99.90;;;;;;5049520;28;20531;-85
2022/06/18 03:29:33;;;;;;;7.63;2.95;;;13.00;99.90;;;;;;5055918;28;20020;-85
2022/06/18 03:32:01;;;;;;;3.33;2.60;;;12.80;99.90;;;;;;5037851;28;20063;-85
2022/06/18 03:34:27;;;;;;;5.43;3.25;;;12.70;99.90;;;;;;5056688;28;20393;-85
2022/06/18 03:36:53;;;;;;;4.60;2.80;;;12.60;99.90;;;;;;5037897;28;20060;-85
2022/06/18 03:39:18;;;;;;;4.60;3.45;;;12.60;99.90;;;;;;5056216;28;20020;-85
2022/06/18 03:41:44;;;;;;;3.92;2.90;;;12.60;99.90;;;;;;5038856;28;20482;-85
2022/06/18 03:44:10;;;;;;;5.03;2.90;;;12.50;99.90;;;;;;5055843;28;20021;-85
2022/06/18 03:46:38;;;;;;;4.63;2.80;;;12.50;99.90;;;;;;5038495;28;20024;-85
2022/06/18 03:49:05;;;;;;;4.63;3.00;;;12.60;99.90;;;;;;5037585;28;20115;-85
2022/06/18 03:51:33;;;;;;;4.03;2.97;;;12.60;99.90;;;;;;5037539;28;20025;-85
2022/06/18 03:53:59;;;;;;;4.18;2.60;;;12.70;99.90;;;;;;5037599;28;20025;-85
2022/06/18 03:56:29;;;;;;;3.92;3.10;;;12.70;99.90;;;;;;5055735;28;20056;-85
2022/06/18 03:58:55;;;;;;;3.53;2.45;;;12.70;99.90;;;;;;5037461;28;20051;-85
2022/06/18 04:01:27;;;;;;;3.92;2.80;;;12.70;99.90;;;;;;5037371;28;20036;-85
2022/06/18 04:03:53;;;;;;;3.50;2.63;;;12.70;99.90;;;;;;5037342;28;20025;-85
2022/06/18 04:06:19;;;;;;;4.07;3.17;;;12.70;99.90;;;;;;5055185;28;20036;-85
2022/06/18 04:08:45;;;;;;;5.47;3.10;;;12.70;99.90;;;;;;5037228;28;20436;-85
2022/06/18 04:11:12;;;;;;;4.57;3.22;;;12.70;99.90;;;;;;5055104;28;20053;-85
2022/06/18 04:13:38;;;;;;;6.43;3.50;;;12.70;99.90;;;;;;5037139;28;20025;-85
2022/06/18 04:16:06;;;;;;;8.68;3.58;;;12.80;99.90;;;;;;5037039;28;20470;-85
2022/06/18 04:18:32;;;;;;;6.47;2.85;;;12.80;99.90;;;;;;5054749;28;20037;-85
2022/06/18 04:20:59;;;;;;;4.63;3.28;;;12.90;99.90;;;;;;5037429;28;20385;-85
2022/06/18 04:23:25;;;;;;;4.28;3.28;;;13.00;99.90;;;;;;5036850;28;20021;-85
2022/06/18 04:25:50;;;;;;;4.32;2.90;;;13.10;99.90;;;;;;5036952;28;20024;-85
2022/06/18 04:28:17;;;;;;;5.05;3.80;;;13.10;99.90;;;;;;5054937;28;20070;-85
2022/06/18 04:30:44;;;;;;;5.47;3.15;;;13.20;99.90;;;;;;5036780;28;20095;-85
2022/06/18 04:33:12;;;;;;;5.20;3.53;;;13.20;99.90;;;;;;5036722;28;20044;-84
2022/06/18 04:35:38;;;;;;;7.03;3.58;;;13.20;99.90;;;;;;5054580;28;20021;-84
2022/06/18 04:38:05;;;;;;;4.97;3.30;;;13.20;99.90;;;;;;5036834;28;20207;-86
2022/06/18 04:40:33;;;;;;;4.93;3.25;;;13.30;99.90;;;;;;5054556;28;20462;-86
2022/06/18 04:43:05;;;;;;;5.78;3.30;;;13.30;99.90;;;;;;5054401;28;20207;-86
2022/06/18 04:45:31;;;;;;;4.15;3.40;;;13.30;99.90;;;;;;5054303;28;20504;-86
2022/06/18 04:47:58;;;;;;;5.28;3.13;;;13.40;99.90;;;;;;5054654;28;20024;-86
2022/06/18 04:50:33;;;;;;;4.82;3.42;;;13.50;99.90;;;;;;5036544;28;20469;-85
2022/06/18 04:52:58;;;;;;;4.32;3.42;;;13.50;99.90;;;;;;5054402;28;20033;-86
2022/06/18 04:55:24;;;;;;;5.72;3.70;;;13.50;99.90;;;;;;5054083;28;20112;-86
2022/06/18 04:57:50;;;;;;;5.05;3.42;;;13.50;99.90;;;;;;5036339;28;20417;-86
2022/06/18 05:00:17;;;;;;;5.75;4.18;;;13.60;99.90;;;;;;5054168;28;20568;-86
2022/06/18 05:02:43;;;;;;;7.43;4.10;;;13.70;99.90;;;;;;5035577;28;20029;-86
2022/06/18 05:05:16;;;;;;;5.53;4.03;;;13.70;99.90;;;;;;5036080;28;20096;-86
2022/06/18 05:07:42;;;;;;;6.25;4.72;;;13.70;99.90;;;;;;5036411;28;20358;-86
2022/06/18 05:10:09;;;;;;;6.13;4.25;;;13.70;99.90;;;;;;5053914;28;20070;-87
2022/06/18 05:12:34;;;;;;;4.95;3.85;;;13.80;99.90;;;;;;5054091;28;20021;-86
2022/06/18 05:15:00;;;;;;;5.55;3.97;;;13.80;99.90;;;;;;5036006;28;20500;-86
2022/06/18 05:17:31;;;;;;;5.47;4.28;;;13.90;99.90;;;;;;5035923;28;20028;-87
2022/06/18 05:20:12;;;;;;;7.05;4.20;;;14.00;99.90;;;;;;5037524;28;20119;-86
2022/06/18 05:26:00;;;;;;;;;;;14.20;99.90;;;;;;5078058;22;20563;-72
2022/06/18 05:28:26;;;;;;;5.43;4.10;;;14.20;99.90;;;;;;5072122;28;19944;-72
2022/06/18 05:30:52;;;;;;;5.78;4.38;;;14.30;99.90;;;;;;5072229;28;20048;-72
2022/06/18 05:33:18;;;;;;;5.63;4.07;;;14.30;99.90;;;;;;5073846;28;20059;-72
2022/06/18 05:35:45;;;;;;;6.10;4.22;;;14.30;99.90;;;;;;5072273;28;20124;-72
2022/06/18 05:38:16;;;;;;;6.95;4.30;;;14.40;99.90;;;;;;5073493;28;20028;-72
2022/06/18 05:40:42;;;;;;;5.05;4.22;;;14.40;99.90;;;;;;5073683;28;20021;-72
2022/06/18 05:43:08;;;;;;;5.78;4.05;;;14.50;99.90;;;;;;5071915;28;20032;-72
2022/06/18 05:45:34;;;;;;;4.63;3.58;;;14.60;99.90;;;;;;5073465;28;20096;-72
2022/06/18 05:47:59;;;;;;;5.53;4.30;;;14.70;99.90;;;;;;5072115;28;20491;-72
2022/06/18 05:50:25;;;;;;;6.05;4.68;;;14.80;99.90;;;;;;5073519;28;20021;-72
2022/06/18 05:52:51;;;;;;;5.60;4.07;;;14.90;99.90;;;;;;5073882;28;20103;-72
2022/06/18 05:55:20;;;;;;;4.90;4.30;;;14.90;99.90;;;;;;5073242;28;20082;-72
2022/06/18 05:57:52;;;;;;;4.88;4.00;;;15.00;99.90;;;;;;5073068;28;20510;-72
2022/06/18 06:00:19;;;;;;;;;;;15.00;99.90;;;;;;5073794;28;20484;-72
2022/06/18 06:02:44;;;;;;;5.60;4.10;;;15.00;99.90;;;;;;5073518;28;19908;-72
2022/06/18 06:05:10;;;;;;;7.47;4.47;;;15.10;99.90;;;;;;5073746;28;20062;-72
2022/06/18 06:07:36;;;;;;;7.80;4.32;;;15.10;99.90;;;;;;5073521;28;20025;-72
2022/06/18 06:12:48;;;;;;;6.28;4.10;;;15.30;99.90;;;;;;5073202;28;20119;-72
2022/06/18 06:15:14;;;;;;;4.97;4.03;;;15.50;99.90;;;;;;5075502;28;20107;-72
2022/06/18 06:17:39;;;;;;;5.25;4.07;;;15.60;99.90;;;;;;5075862;28;20051;-72
2022/06/18 06:20:21;;;;;;;6.07;4.35;;;15.60;99.90;;;;;;5076866;28;20545;-72
2022/06/18 06:22:47;;;;;;;6.18;4.63;;;15.80;99.90;;;;;;5075824;28;20020;-72
2022/06/18 06:25:12;;;;;;;10.23;5.47;;;15.90;99.90;;;;;;5076641;28;20028;-72
2022/06/18 06:27:38;;;;;;;9.07;5.50;;;16.00;99.90;;;;;;5076574;28;20051;-72
2022/06/18 06:30:04;;;;;;;8.15;5.60;;;16.10;99.90;;;;;;5076657;28;20415;-72
2022/06/18 06:32:30;;;;;;;9.93;6.10;;;16.30;99.90;;;;;;5076738;28;20028;-72
2022/06/18 06:34:55;;;;;;;10.05;6.68;;;16.40;99.90;;;;;;5076685;28;20036;-72
2022/06/18 06:37:21;;;;;;;10.38;7.00;;;16.50;99.90;;;;;;5076421;28;20574;-72
2022/06/18 06:39:46;;;;;;;9.88;6.78;;;16.60;99.90;;;;;;5075033;28;20035;-72
2022/06/18 06:42:12;;;;;;;8.88;7.47;;;16.70;99.90;;;;;;5076270;28;20035;-72
2022/06/18 06:44:38;;;;;;;8.68;7.03;;;16.90;99.90;;;;;;5076471;28;20052;-72
2022/06/18 06:47:04;;;;;;;12.75;8.15;;;17.00;99.90;;;;;;5076404;28;20017;-73
2022/06/18 06:49:29;;;;;;;10.63;8.07;;;17.10;99.90;;;;;;5076655;28;20028;-72
2022/06/18 06:51:55;;;;;;;9.05;7.82;;;17.30;99.90;;;;;;5076406;28;20430;-72
2022/06/18 06:54:20;;;;;;;9.45;6.53;;;17.40;99.90;;;;;;5075151;28;20103;-71
2022/06/18 06:59:30;;;;;;;6.07;4.50;;;17.60;99.90;;;;;;5076689;28;20078;-72
2022/06/18 07:01:56;;;;;;;6.05;5.28;;;17.80;99.90;;;;;;5076178;28;20024;-72
2022/06/18 07:04:22;;;;;;;6.25;4.90;;;17.90;99.80;;;;;;5076252;28;20437;-71
2022/06/18 07:06:48;;;;;;;6.47;5.20;;;18.10;99.40;;;;;;5076266;28;20021;-71
2022/06/18 07:09:13;;;;;;;6.07;4.95;;;18.20;99.90;;;;;;5076212;28;20055;-71
2022/06/18 07:11:39;;;;;;;8.02;5.97;;;18.40;99.70;;;;;;5076135;28;20013;-70
2022/06/18 07:14:06;;;;;;;7.38;5.88;;;18.50;99.80;;;;;;5075103;28;20024;-71
2022/06/18 07:16:31;;;;;;;7.10;4.97;;;18.60;99.70;;;;;;5076069;28;20025;-71
2022/06/18 07:18:58;;;;;;;5.18;4.47;;;18.80;99.00;;;;;;5076001;28;20023;-71
2022/06/18 07:21:24;;;;;;;6.88;4.50;;;18.90;98.40;;;;;;5075947;28;20028;-71
2022/06/18 07:23:50;;;;;;;6.07;4.30;;;19.10;98.40;;;;;;5076221;28;20104;-71
2022/06/18 07:26:19;;;;;;;7.05;5.50;;;19.20;98.10;;;;;;5075505;28;20170;-71
2022/06/18 07:28:45;;;;;;;6.95;5.80;;;19.40;97.80;;;;;;5075742;28;20395;-70
2022/06/18 07:31:24;;;;;;;9.00;5.35;;;19.60;98.10;;;;;;5075766;28;20099;-71
2022/06/18 07:33:51;;;;;;;6.93;4.88;;;19.70;98.10;;;;;;5076235;28;20054;-71
2022/06/18 07:36:17;;;;;;;6.57;4.53;;;19.90;97.60;;;;;;5076037;28;20024;-71
2022/06/18 07:38:43;;;;;;;7.22;5.10;;;20.00;96.20;;;;;;5075715;28;20498;-71
2022/06/18 07:41:08;;;;;;;5.38;3.70;;;20.10;95.50;;;;;;5076057;28;20025;-70
2022/06/18 07:43:39;;;;;;;5.40;3.65;;;20.20;94.50;;;;;;5075262;28;20028;-70
2022/06/18 07:46:06;;;;;;;5.35;3.45;;;20.40;93.70;;;;;;5074231;28;20029;-70
2022/06/18 07:48:32;;;;;;;4.78;3.05;;;20.50;93.70;;;;;;5075767;28;20027;-71
2022/06/18 07:50:57;;;;;;;3.45;2.85;;;20.60;92.90;;;;;;5075929;28;20013;-71
2022/06/18 07:53:24;;;;;;;4.88;3.00;;;20.80;92.50;;;;;;5074060;28;20024;-71
2022/06/18 07:55:51;;;;;;;4.07;2.92;;;21.00;93.00;;;;;;5075394;28;20028;-71
2022/06/18 07:58:17;;;;;;;5.30;2.80;;;21.10;91.60;;;;;;5074866;28;20025;-71
2022/06/18 08:00:43;;;;;;;3.13;2.40;;;21.20;91.70;;;;;;5075330;28;20024;-71
2022/06/18 08:03:11;;;;;;;4.63;2.70;;;21.30;91.60;;;;;;5075186;28;20131;-71
2022/06/18 08:05:38;;;;;;;2.88;2.35;;;21.40;91.40;;;;;;5075169;28;20421;-71
2022/06/18 08:08:04;;;;;;;3.58;2.28;;;21.60;89.70;;;;;;5075109;28;20024;-71
2022/06/18 08:10:31;;;;;;;3.70;2.10;;;21.80;90.10;;;;;;5073730;28;20024;-71
2022/06/18 08:12:57;;;;;;;3.70;1.92;;;21.90;89.50;;;;;;5074919;28;20035;-71
2022/06/18 08:15:23;;;;;;;3.33;2.30;;;22.00;87.40;;;;;;5075248;28;20030;-70
2022/06/18 08:17:48;;;;;;;4.75;2.60;;;22.20;87.90;;;;;;5075178;28;20027;-71
2022/06/18 08:20:14;;;;;;;3.80;2.30;;;22.30;85.30;;;;;;5075547;28;20024;-71
2022/06/18 08:22:44;;;;;;;3.08;2.20;;;22.40;86.00;;;;;;5075291;28;20020;-71
2022/06/18 08:25:12;;;;;;;2.92;2.13;;;22.50;81.70;;;;;;5074725;28;20538;-71
2022/06/18 08:27:41;;;;;;;2.40;1.98;;;22.60;82.10;;;;;;5074446;28;20086;-70
2022/06/18 08:30:08;;;;;;;4.60;2.15;;;22.70;83.10;;;;;;5074561;28;20021;-70
2022/06/18 08:32:34;;;;;;;2.95;2.30;;;22.80;81.70;;;;;;5074598;28;20036;-70
2022/06/18 08:35:00;;;;;;;4.90;2.15;;;22.90;81.40;;;;;;5074548;28;20048;-70
2022/06/18 08:37:28;;;;;;;4.28;2.17;;;23.00;81.30;;;;;;5073709;28;20024;-70
2022/06/18 08:39:54;;;;;;;3.85;2.50;;;23.20;84.80;;;;;;5074387;28;20036;-70
2022/06/18 08:42:25;;;;;;;4.03;2.40;;;23.20;80.20;;;;;;5074227;28;20029;-72
2022/06/18 08:45:00;;;;;;;4.40;2.97;;;23.30;81.90;;;;;;5074360;28;20028;-71
2022/06/18 08:47:56;;;;;;;4.57;2.95;;;23.50;82.90;;;;;;5074300;28;20024;-71
2022/06/18 08:50:51;;;;;;;5.60;3.00;;;23.70;82.00;;;;;;5074184;28;20026;-71
2022/06/18 08:53:43;;;;;;;4.15;2.92;;;23.90;81.60;;;;;;5074515;28;20384;-71
2022/06/18 08:56:18;;;;;;;3.55;2.55;;;24.00;82.40;;;;;;5072903;28;20035;-71
2022/06/18 08:58:56;;;;;;;4.70;2.28;;;24.10;83.00;;;;;;5073011;28;20028;-71
2022/06/18 09:01:33;;;;;;;3.30;2.50;;;24.30;76.70;;;;;;5073232;28;20029;-71
2022/06/18 09:04:27;;;;;;;4.13;3.08;;;24.40;75.40;;;;;;5074041;28;20028;-71
2022/06/18 09:07:23;;;;;;;3.95;2.90;;;24.50;79.10;;;;;;5074234;28;20104;-72
2022/06/18 09:10:13;;;;;;;5.80;3.17;;;24.70;77.50;;;;;;5074130;28;20025;-71
2022/06/18 09:12:48;;;;;;;4.30;3.07;;;24.80;77.50;;;;;;5073894;28;20020;-71
2022/06/18 09:15:26;;;;;;;8.70;3.25;;;24.90;75.30;;;;;;5073761;28;20266;-71
2022/06/18 09:17:59;;;;;;;4.50;3.30;;;25.00;75.90;;;;;;5073999;28;20111;-71
2022/06/18 09:20:57;;;;;;;3.38;2.78;;;25.10;76.20;;;;;;5074447;28;20020;-69
2022/06/18 09:23:25;;;;;;;5.55;3.83;;;25.20;74.40;;;;;;5073976;28;20020;-69
2022/06/18 09:25:53;;;;;;;7.47;3.63;;;25.40;72.80;;;;;;5073564;28;20107;-69
2022/06/18 09:28:33;;;;;;;6.00;3.53;;;25.50;73.00;;;;;;5073673;28;20070;-69
2022/06/18 09:31:23;;;;;;;4.00;3.60;;;25.60;72.40;;;;;;5073339;28;20020;-69
2022/06/18 09:33:57;;;;;;;4.65;3.70;;;25.70;75.00;;;;;;5071844;28;20533;-69
2022/06/18 09:36:31;;;;;;;4.38;3.78;;;25.90;74.30;;;;;;5073847;28;20472;-69
2022/06/18 09:39:08;;;;;;;5.18;2.85;;;26.00;74.50;;;;;;5072324;28;20036;-69
2022/06/18 09:41:47;;;;;;;5.78;2.90;;;26.20;71.80;;;;;;5074042;28;20074;-69
2022/06/18 09:44:18;;;;;;;3.55;3.00;;;26.30;72.20;;;;;;5071927;28;20035;-70
2022/06/18 09:46:50;;;;;;;4.05;2.83;;;26.40;71.10;;;;;;5073455;28;20476;-69
2022/06/18 09:49:16;;;;;;;4.15;2.97;;;26.60;71.40;;;;;;5072280;28;20052;-69
2022/06/18 09:52:11;;;;;;;4.45;2.72;;;26.70;70.20;;;;;;5073331;28;20059;-69
2022/06/18 09:54:49;;;;;;;2.25;1.80;;;26.80;67.00;;;;;;5073280;28;20128;-69
2022/06/18 09:57:18;;;;;;;2.30;1.70;;;26.90;64.40;;;;;;5073676;28;20036;-69
2022/06/18 10:00:00;;;;;;;2.22;1.40;;;27.00;59.80;;;;;;5073012;28;20079;-69
2022/06/18 10:02:29;;;;;;;4.13;1.77;;;27.20;60.20;;;;;;5073309;28;20032;-69
2022/06/18 10:07:44;;;;;;;3.15;1.80;;;27.30;59.50;;;;;;5073564;28;20027;-69
2022/06/18 10:10:14;;;;;;;2.65;1.60;;;27.30;57.10;;;;;;5073211;28;20032;-69
2022/06/18 10:12:48;;;;;;;2.65;1.70;;;27.40;57.40;;;;;;5073521;28;20094;-69
2022/06/18 10:15:17;;;;;;;2.70;1.45;;;27.50;53.80;;;;;;5071727;28;20029;-69
2022/06/18 10:17:51;;;;;;;2.45;1.40;;;27.40;53.80;;;;;;5073164;28;20017;-69
2022/06/18 10:20:45;;;;;;;2.45;1.23;;;27.40;53.50;;;;;;5073045;28;20028;-69
2022/06/18 10:23:31;;;;;;;2.00;1.27;;;27.50;54.50;;;;;;5073294;28;20025;-69
2022/06/18 10:26:18;;;;;;;3.67;1.33;;;27.60;52.10;;;;;;5071714;28;20082;-69
2022/06/18 10:29:15;;;;;;;3.13;1.05;;;27.70;52.80;;;;;;5073335;28;20033;-69
2022/06/18 10:32:14;;;;;;;3.60;1.40;;;27.90;52.10;;;;;;5071707;28;20025;-69
2022/06/18 10:35:04;;;;;;;2.88;1.20;;;28.10;52.60;;;;;;5072984;28;20033;-69
2022/06/18 10:37:44;;;;;;;1.73;1.02;;;28.20;51.90;;;;;;5073251;28;20024;-69
2022/06/18 10:40:29;;;;;;;1.55;0.90;;;28.30;49.30;;;;;;5072917;28;20029;-69
2022/06/18 10:43:24;;;;;;;1.73;1.10;;;28.40;49.20;;;;;;5073151;28;20060;-69
2022/06/18 10:46:06;;;;;;;1.40;0.73;;;28.50;48.60;;;;;;5066897;28;20060;-69
2022/06/18 10:48:33;;;;;;;1.00;0.73;;;28.80;46.10;;;;;;5072935;28;20086;-69
2022/06/18 10:51:01;;;;;;;2.10;0.60;;;28.90;47.40;;;;;;5072818;28;20017;-69
2022/06/18 10:53:30;;;;;;;1.02;0.65;;;29.00;45.20;;;;;;5072822;28;20025;-70
2022/06/18 10:56:05;;;;;;;2.55;0.77;;;29.10;45.90;;;;;;5071553;28;20127;-69
2022/06/18 10:58:31;;;;;;;1.40;0.70;;;29.10;44.90;;;;;;5073084;28;20078;-69
2022/06/18 11:00:59;;;;;;;1.83;0.73;;;29.20;47.40;;;;;;5075334;28;20452;-69
2022/06/18 11:03:33;;;;;;;2.10;0.82;;;29.30;49.80;;;;;;5076289;28;20484;-69
2022/06/18 11:06:08;;;;;;;1.60;1.00;;;29.30;45.60;;;;;;5077117;28;20363;-69
2022/06/18 11:08:36;;;;;;;1.58;0.70;;;29.30;47.30;;;;;;5076296;28;20013;-69
2022/06/18 11:11:05;;;;;;;1.25;0.80;;;29.40;46.30;;;;;;5076182;28;20021;-69
2022/06/18 11:13:38;;;;;;;1.40;0.80;;;29.50;44.90;;;;;;5076514;28;20028;-69
2022/06/18 11:16:03;;;;;;;;;;;29.50;40.70;;;;;;5076069;28;20056;-69
2022/06/18 11:18:29;;;;;;;;;;;29.50;42.50;;;;;;5076131;28;19904;-69
2022/06/18 11:20:59;;;;;;;;;;;29.50;42.40;;;;;;5076655;28;19912;-68
2022/06/18 11:23:25;;;;;;;;;;;29.50;45.20;;;;;;5075086;28;19908;-69
2022/06/18 11:25:52;;;;;;;;;;;29.60;43.70;;;;;;5076230;28;20368;-68
2022/06/18 11:28:28;;;;;;;;;;;29.70;44.40;;;;;;5076561;28;19905;-69
2022/06/18 11:30:54;;;;;;;;;;;30.00;44.70;;;;;;5075794;28;19908;-69
2022/06/18 11:33:23;;;;;;;;;;;30.20;43.80;;;;;;5076151;28;20379;-69
2022/06/18 11:35:50;;;;;;;;;;;30.50;42.90;;;;;;5076220;28;19904;-69
2022/06/18 11:38:29;;;;;;;;;;;30.70;43.10;;;;;;5075254;28;20013;-69
2022/06/18 11:40:56;;;;;;;;;;;30.90;45.20;;;;;;5074867;28;19908;-69
2022/06/18 11:43:34;;;;;;;;;;;30.90;44.50;;;;;;5075348;28;19908;-69
2022/06/18 11:46:04;;;;;;;;;;;31.10;43.20;;;;;;5075123;28;19940;-69
2022/06/18 11:48:40;;;;;;;;;;;31.10;43.00;;;;;;5075248;28;20041;-69
2022/06/18 11:51:36;;;;;;;3.15;0.50;;;31.20;44.50;;;;;;5075433;28;20031;-69
2022/06/18 11:54:07;;;;;;;1.48;0.70;;;31.20;44.20;;;;;;5069660;28;20040;-69
2022/06/18 11:56:32;;;;;;;1.70;0.60;;;31.20;44.20;;;;;;5075418;28;20488;-68
2022/06/18 11:59:15;;;;;;;1.13;0.60;;;31.30;43.60;;;;;;5075599;28;20032;-69
2022/06/18 12:01:51;;;;;;;3.83;0.80;;;31.40;45.90;;;;;;5075028;28;20055;-69
2022/06/18 12:04:31;;;;;;;2.38;0.80;;;31.50;45.00;;;;;;5075483;28;20025;-69
2022/06/18 12:07:14;;;;;;;1.27;0.63;;;31.50;43.80;;;;;;5075131;28;20028;-69
2022/06/18 12:09:41;;;;;;;0.70;0.40;;;31.70;43.50;;;;;;5075398;28;20020;-69
2022/06/18 12:12:10;;;;;;;2.30;0.82;;;31.80;40.20;;;;;;5073729;28;20016;-69
2022/06/18 12:15:01;;;;;;;5.93;0.90;;;31.90;39.90;;;;;;5074688;28;20033;-69
2022/06/18 12:17:36;;;;;;;2.50;0.82;;;32.00;41.90;;;;;;5073092;28;20488;-69
2022/06/18 12:20:25;;;;;;;2.28;1.00;;;32.10;40.80;;;;;;5075406;28;20027;-69
2022/06/18 12:23:12;;;;;;;5.57;1.10;;;32.10;41.80;;;;;;5073509;28;20112;-69
2022/06/18 12:25:40;;;;;;;3.45;0.90;;;32.20;40.90;;;;;;5074653;28;20112;-69
2022/06/18 12:28:09;;;;;;;4.95;1.20;;;32.20;43.00;;;;;;5074639;28;20082;-68
2022/06/18 12:31:00;;;;;;;2.90;1.00;;;32.30;41.80;;;;;;5074266;28;20017;-69
2022/06/18 12:33:28;;;;;;;;;;;32.10;40.70;;;;;;5075324;28;20028;-69
2022/06/18 12:36:27;;;;;;;6.22;1.40;;;32.00;39.90;;;;;;5074651;28;19999;-68
2022/06/18 12:39:01;;;;;;;6.40;1.75;;;32.10;39.80;;;;;;5075103;28;20404;-68
2022/06/18 12:41:44;;;;;;;8.57;1.45;;;32.20;42.70;;;;;;5073163;28;20096;-69
2022/06/18 12:44:29;;;;;;;4.85;1.20;;;32.40;42.40;;;;;;5073196;28;20016;-69
2022/06/18 12:47:24;;;;;;;3.72;1.30;;;32.50;41.30;;;;;;5073961;28;20017;-69
2022/06/18 12:50:05;;;;;;;6.55;1.40;;;32.70;41.10;;;;;;5074067;28;20463;-68
2022/06/18 12:52:44;;;;;;;7.25;1.48;;;32.90;42.70;;;;;;5074126;28;20025;-68
2022/06/18 12:55:44;;;;;;;8.43;1.50;;;33.00;41.50;;;;;;5074015;28;20021;-68
2022/06/18 12:58:28;;;;;;;4.75;1.40;;;33.10;38.80;;;;;;5074109;28;20021;-69
2022/06/18 13:01:03;;;;;;;9.38;1.58;;;33.10;40.60;;;;;;5073556;28;20025;-68
2022/06/18 13:03:52;;;;;;;6.22;1.63;;;33.30;40.40;;;;;;5072548;28;20415;-69
2022/06/18 13:06:33;;;;;;;5.90;1.85;;;33.30;40.00;;;;;;5073168;28;20062;-68
2022/06/18 13:09:36;;;;;;;10.02;1.67;;;33.30;39.40;;;;;;5072483;28;20024;-69
2022/06/18 13:12:45;;;;;;;6.38;1.65;;;33.20;38.80;;;;;;5073618;28;20111;-68
2022/06/18 13:15:27;;;;;;;7.60;1.95;;;33.20;40.50;;;;;;5073415;28;20059;-69
2022/06/18 13:18:00;;;;;;;11.35;1.75;;;33.20;38.70;;;;;;5073754;28;20422;-69
2022/06/18 13:20:34;;;;;;;11.20;1.77;;;32.90;38.70;;;;;;5073272;28;20112;-68
2022/06/18 13:28:10;;;;;;;10.38;1.83;;;32.60;40.50;;;;;;5073016;28;20036;-68
2022/06/18 13:28:33;;;;;;;7.35;1.80;;;32.80;40.90;;;;;;5073392;28;20023;-68
2022/06/18 13:31:23;;;;;;;11.25;2.25;;;33.00;40.10;;;;;;5073082;28;20058;-69
2022/06/18 13:34:16;;;;;;;8.55;1.50;;;33.20;39.60;;;;;;5072170;28;20029;-69
2022/06/18 13:36:58;;;;;;;8.90;1.88;;;33.30;39.00;;;;;;5068275;28;20423;-68
2022/06/18 13:39:48;;;;;;;9.70;2.17;;;33.50;39.20;;;;;;5073279;28;20021;-68